Time;durP1;ratioP1;P1;durP2;ratioP2;P2;SDS_P1;SDS_P2;PMS_P1;PMS_P2;Temp;Humidity;BMP_temperature;BMP_pressure;BME280_temperature;BME280_humidity;BME280_pressure;Samples;Min_cycle;Max_cycle;Signal;HPM_P1;HPM_P2
2023/12/03 00:00:47;;;;;;;22.67;13.90;;;;;;;;;;6181455;23;20100;-88
2023/12/03 00:03:14;;;;;;;19.48;11.75;;;;;;;;;;6182006;23;20365;-88
2023/12/03 00:05:42;;;;;;;20.67;12.80;;;;;;;;;;6155745;23;20082;-88
2023/12/03 00:08:09;;;;;;;21.08;12.82;;;;;;;;;;6181638;23;20036;-88
2023/12/03 00:10:36;;;;;;;18.20;11.98;;;;;;;;;;6181650;23;20082;-88
2023/12/03 00:13:04;;;;;;;17.00;11.13;;;;;;;;;;6155784;23;20031;-88
2023/12/03 00:15:31;;;;;;;20.00;11.63;;;;;;;;;;6155699;23;20021;-88
2023/12/03 00:17:59;;;;;;;15.45;9.38;;;;;;;;;;6155988;23;20032;-88
2023/12/03 00:20:26;;;;;;;12.10;8.32;;;;;;;;;;6181824;23;20055;-88
2023/12/03 00:22:54;;;;;;;9.52;7.50;;;;;;;;;;6181592;23;20051;-88
2023/12/03 00:25:21;;;;;;;10.13;7.97;;;;;;;;;;6155451;23;20033;-88
2023/12/03 00:27:49;;;;;;;9.68;7.55;;;;;;;;;;6156113;23;20070;-88
2023/12/03 00:30:16;;;;;;;11.25;7.78;;;;;;;;;;6181939;23;20464;-88
2023/12/03 00:32:44;;;;;;;9.52;7.40;;;;;;;;;;6156496;23;20028;-87
2023/12/03 00:35:12;;;;;;;11.23;7.90;;;;;;;;;;6155299;23;20021;-88
2023/12/03 00:37:39;;;;;;;11.02;7.50;;;;;;;;;;6156386;23;20044;-88
2023/12/03 00:40:07;;;;;;;9.57;7.85;;;;;;;;;;6156181;23;20021;-88
2023/12/03 00:42:34;;;;;;;9.82;7.57;;;;;;;;;;6156313;23;20032;-88
2023/12/03 00:45:02;;;;;;;11.77;8.27;;;;;;;;;;6156114;23;20017;-88
2023/12/03 00:47:29;;;;;;;12.55;8.20;;;;;;;;;;6156133;23;20022;-88
2023/12/03 00:49:56;;;;;;;10.70;7.90;;;;;;;;;;6156412;23;20021;-87
2023/12/03 00:52:23;;;;;;;10.07;7.72;;;;;;;;;;6182440;23;20036;-88
2023/12/03 00:54:51;;;;;;;9.88;7.22;;;;;;;;;;6162468;23;20017;-88
2023/12/03 00:57:18;;;;;;;10.70;7.43;;;;;;;;;;6192738;23;20103;-88
2023/12/03 00:59:46;;;;;;;10.18;7.20;;;;;;;;;;6159488;23;20100;-88
2023/12/03 01:02:13;;;;;;;9.02;6.75;;;;;;;;;;6155808;23;20101;-87
2023/12/03 01:04:40;;;;;;;11.18;7.70;;;;;;;;;;6155096;23;20043;-88
2023/12/03 01:07:08;;;;;;;11.48;7.60;;;;;;;;;;6156050;23;20074;-88
2023/12/03 01:09:35;;;;;;;10.25;7.40;;;;;;;;;;6181648;23;20071;-88
2023/12/03 01:12:02;;;;;;;8.30;6.68;;;;;;;;;;6181643;23;20021;-88
2023/12/03 01:14:29;;;;;;;8.77;6.90;;;;;;;;;;6155494;23;20021;-88
2023/12/03 01:16:57;;;;;;;10.85;7.32;;;;;;;;;;6155568;23;20021;-87
2023/12/03 01:19:24;;;;;;;14.35;8.05;;;;;;;;;;6155892;23;20036;-88
2023/12/03 01:21:52;;;;;;;9.68;7.22;;;;;;;;;;6155683;23;20021;-88
2023/12/03 01:24:19;;;;;;;8.52;7.22;;;;;;;;;;6181482;23;20025;-88
2023/12/03 01:26:47;;;;;;;9.82;7.55;;;;;;;;;;6181171;23;20096;-88
2023/12/03 01:29:14;;;;;;;9.75;7.25;;;;;;;;;;6155291;23;20032;-88
2023/12/03 01:31:42;;;;;;;10.68;7.50;;;;;;;;;;6155954;23;20037;-88
2023/12/03 01:34:09;;;;;;;10.60;8.02;;;;;;;;;;6155632;23;20067;-88
2023/12/03 01:36:36;;;;;;;10.45;7.78;;;;;;;;;;6155350;23;20035;-87
2023/12/03 01:39:05;;;;;;;10.95;8.57;;;;;;;;;;6155683;23;20036;-88
2023/12/03 01:41:32;;;;;;;11.18;8.25;;;;;;;;;;6155333;23;20082;-88
2023/12/03 01:44:02;;;;;;;11.25;8.13;;;;;;;;;;6155838;23;20025;-87
2023/12/03 01:46:29;;;;;;;11.98;8.30;;;;;;;;;;6155210;23;20094;-87
2023/12/03 01:48:56;;;;;;;9.80;7.70;;;;;;;;;;6155820;23;20374;-88
2023/12/03 01:51:24;;;;;;;10.18;7.35;;;;;;;;;;6155185;23;20028;-88
2023/12/03 01:53:52;;;;;;;9.88;7.40;;;;;;;;;;6180875;23;20040;-88
2023/12/03 01:56:19;;;;;;;9.32;7.32;;;;;;;;;;6154567;23;20495;-88
2023/12/03 01:58:46;;;;;;;9.43;7.13;;;;;;;;;;6181144;23;20044;-88
2023/12/03 02:01:13;;;;;;;10.38;7.88;;;;;;;;;;6181329;23;20376;-88
2023/12/03 02:03:41;;;;;;;11.35;7.70;;;;;;;;;;6181249;23;20029;-88
2023/12/03 02:06:09;;;;;;;12.57;8.20;;;;;;;;;;6155158;23;20048;-88
2023/12/03 02:08:37;;;;;;;10.52;7.47;;;;;;;;;;6155424;23;20049;-88
2023/12/03 02:11:06;;;;;;;9.68;7.03;;;;;;;;;;6154723;23;20074;-87
2023/12/03 02:13:34;;;;;;;11.02;8.18;;;;;;;;;;6181062;23;20025;-87
2023/12/03 02:16:02;;;;;;;9.40;7.18;;;;;;;;;;6154636;23;20029;-88
2023/12/03 02:18:29;;;;;;;9.10;6.63;;;;;;;;;;6155311;23;20111;-88
2023/12/03 02:20:57;;;;;;;9.82;7.43;;;;;;;;;;6155196;23;20019;-88
2023/12/03 02:23:27;;;;;;;11.02;8.00;;;;;;;;;;6154888;23;20057;-88
2023/12/03 02:25:55;;;;;;;9.38;7.65;;;;;;;;;;6154678;23;20032;-88
2023/12/03 02:28:22;;;;;;;11.55;8.13;;;;;;;;;;6155334;23;20079;-88
2023/12/03 02:30:49;;;;;;;10.35;7.82;;;;;;;;;;6181025;23;20338;-87
2023/12/03 02:33:17;;;;;;;10.43;8.10;;;;;;;;;;6154849;23;20025;-88
2023/12/03 02:35:44;;;;;;;10.65;7.40;;;;;;;;;;6154757;23;20043;-87
2023/12/03 02:38:11;;;;;;;9.27;7.32;;;;;;;;;;6154287;23;20017;-88
2023/12/03 02:40:39;;;;;;;11.07;8.23;;;;;;;;;;6156495;23;20098;-88
2023/12/03 02:43:06;;;;;;;9.88;7.63;;;;;;;;;;6182370;23;20071;-88
2023/12/03 02:45:33;;;;;;;11.40;8.38;;;;;;;;;;6182253;23;20024;-88
2023/12/03 02:48:01;;;;;;;11.60;8.10;;;;;;;;;;6182237;23;20043;-88
2023/12/03 02:50:28;;;;;;;9.35;7.35;;;;;;;;;;6155622;23;20053;-88
2023/12/03 02:52:55;;;;;;;11.27;8.32;;;;;;;;;;6155953;23;20051;-88
2023/12/03 02:55:22;;;;;;;14.45;8.98;;;;;;;;;;6182118;23;20021;-88
2023/12/03 02:57:50;;;;;;;11.65;8.25;;;;;;;;;;6156146;23;20032;-88
2023/12/03 03:00:17;;;;;;;11.63;7.82;;;;;;;;;;6156116;23;20031;-87
2023/12/03 03:02:44;;;;;;;12.18;8.20;;;;;;;;;;6155841;23;20477;-88
2023/12/03 03:05:11;;;;;;;12.43;8.77;;;;;;;;;;6155769;23;20029;-88
2023/12/03 03:07:39;;;;;;;11.38;8.45;;;;;;;;;;6182522;23;20032;-88
2023/12/03 03:10:06;;;;;;;9.95;8.05;;;;;;;;;;6156272;23;20074;-88
2023/12/03 03:12:34;;;;;;;11.68;8.20;;;;;;;;;;6156581;23;20025;-88
2023/12/03 03:15:01;;;;;;;13.55;8.45;;;;;;;;;;6181944;23;20446;-87
2023/12/03 03:17:28;;;;;;;10.98;7.88;;;;;;;;;;6156043;23;20025;-88
2023/12/03 03:19:55;;;;;;;11.35;8.20;;;;;;;;;;6156039;23;20036;-88
2023/12/03 03:22:23;;;;;;;12.10;7.70;;;;;;;;;;6181960;23;20094;-88
2023/12/03 03:24:52;;;;;;;13.70;8.60;;;;;;;;;;6156131;23;20021;-88
2023/12/03 03:27:19;;;;;;;12.35;8.00;;;;;;;;;;6155663;23;20032;-88
2023/12/03 03:29:47;;;;;;;13.93;8.68;;;;;;;;;;6156200;23;20025;-88
2023/12/03 03:32:14;;;;;;;12.13;8.15;;;;;;;;;;6155861;23;20028;-88
2023/12/03 03:34:41;;;;;;;10.65;8.15;;;;;;;;;;6181795;23;20021;-88
2023/12/03 03:37:08;;;;;;;11.43;8.05;;;;;;;;;;6155471;23;20024;-88
2023/12/03 03:39:36;;;;;;;10.82;8.38;;;;;;;;;;6182493;23;20021;-87
2023/12/03 03:42:03;;;;;;;12.55;8.85;;;;;;;;;;6182228;23;20327;-88
2023/12/03 03:44:31;;;;;;;12.32;7.97;;;;;;;;;;6156156;23;20018;-88
2023/12/03 03:46:58;;;;;;;12.15;7.93;;;;;;;;;;6155995;23;20029;-88
2023/12/03 03:49:25;;;;;;;12.05;8.48;;;;;;;;;;6155927;23;20021;-88
2023/12/03 03:51:53;;;;;;;12.02;8.70;;;;;;;;;;6156680;23;20021;-88
2023/12/03 03:54:20;;;;;;;15.10;8.65;;;;;;;;;;6155807;23;20017;-88
2023/12/03 03:56:47;;;;;;;11.88;8.95;;;;;;;;;;6155488;23;20020;-88
2023/12/03 03:59:15;;;;;;;11.70;8.68;;;;;;;;;;6181895;23;20028;-88
2023/12/03 04:01:46;;;;;;;10.77;8.25;;;;;;;;;;6181695;23;20066;-88
2023/12/03 04:04:13;;;;;;;11.80;8.15;;;;;;;;;;6182276;23;20380;-87
2023/12/03 04:06:41;;;;;;;11.07;7.97;;;;;;;;;;6156199;23;20018;-88
2023/12/03 04:09:09;;;;;;;11.82;7.95;;;;;;;;;;6156456;23;20026;-88
2023/12/03 04:11:43;;;;;;;10.75;7.63;;;;;;;;;;6182230;23;20099;-88
2023/12/03 04:14:12;;;;;;;10.50;7.30;;;;;;;;;;6156158;23;20028;-88
2023/12/03 04:16:40;;;;;;;10.05;7.95;;;;;;;;;;6182533;23;20028;-88
2023/12/03 04:19:07;;;;;;;12.48;7.88;;;;;;;;;;6156364;23;20021;-88
2023/12/03 04:21:36;;;;;;;12.13;7.50;;;;;;;;;;6160433;23;20025;-89
2023/12/03 04:24:04;;;;;;;9.63;7.25;;;;;;;;;;6160342;23;20029;-88
2023/12/03 04:26:31;;;;;;;11.35;8.02;;;;;;;;;;6159801;23;20055;-89
2023/12/03 04:28:58;;;;;;;12.50;8.43;;;;;;;;;;6156186;23;20059;-88
2023/12/03 04:31:26;;;;;;;11.45;8.73;;;;;;;;;;6156561;23;20091;-89
2023/12/03 04:33:54;;;;;;;12.30;8.52;;;;;;;;;;6156426;23;20316;-88
2023/12/03 04:36:27;;;;;;;13.40;8.50;;;;;;;;;;6182039;23;20025;-88
2023/12/03 04:38:55;;;;;;;12.32;8.70;;;;;;;;;;6155973;23;20027;-88
2023/12/03 04:41:22;;;;;;;12.88;9.13;;;;;;;;;;6156548;23;20071;-88
2023/12/03 04:43:50;;;;;;;16.35;11.10;;;;;;;;;;6156238;23;20025;-88
2023/12/03 04:46:17;;;;;;;14.07;9.63;;;;;;;;;;6156050;23;20021;-88
2023/12/03 04:48:44;;;;;;;13.10;9.05;;;;;;;;;;6156329;23;20102;-88
2023/12/03 04:51:13;;;;;;;12.52;8.80;;;;;;;;;;6156065;23;20021;-88
2023/12/03 04:53:40;;;;;;;12.23;9.20;;;;;;;;;;6155769;23;20029;-89
2023/12/03 04:56:08;;;;;;;11.68;8.27;;;;;;;;;;6156106;23;20078;-88
2023/12/03 04:58:35;;;;;;;11.55;8.45;;;;;;;;;;6156118;23;20469;-88
2023/12/03 05:01:03;;;;;;;9.75;7.20;;;;;;;;;;6155886;23;20021;-88
2023/12/03 05:03:30;;;;;;;10.15;7.68;;;;;;;;;;6156169;23;20025;-88
2023/12/03 05:05:57;;;;;;;11.77;8.35;;;;;;;;;;6155337;23;20063;-88
2023/12/03 05:08:25;;;;;;;11.85;8.32;;;;;;;;;;6155542;23;20025;-88
2023/12/03 05:10:52;;;;;;;11.00;8.35;;;;;;;;;;6155805;23;20066;-88
2023/12/03 05:13:20;;;;;;;11.32;8.30;;;;;;;;;;6156071;23;20454;-88
2023/12/03 05:15:47;;;;;;;12.23;8.70;;;;;;;;;;6155620;23;20044;-88
2023/12/03 05:18:14;;;;;;;12.95;8.55;;;;;;;;;;6155162;23;20025;-88
2023/12/03 05:20:42;;;;;;;11.98;8.10;;;;;;;;;;6181325;23;20017;-87
2023/12/03 05:23:10;;;;;;;11.93;8.60;;;;;;;;;;6155091;23;20074;-88
2023/12/03 05:25:37;;;;;;;13.73;9.48;;;;;;;;;;6155083;23;20021;-88
2023/12/03 05:28:04;;;;;;;13.27;8.25;;;;;;;;;;6155215;23;20520;-88
2023/12/03 05:30:32;;;;;;;11.63;8.45;;;;;;;;;;6155469;23;20021;-88
2023/12/03 05:33:00;;;;;;;11.73;8.45;;;;;;;;;;6155279;23;20024;-87
2023/12/03 05:35:27;;;;;;;11.85;8.25;;;;;;;;;;6155355;23;20025;-89
2023/12/03 05:37:54;;;;;;;11.57;8.07;;;;;;;;;;6155317;23;20074;-87
2023/12/03 05:40:22;;;;;;;11.88;8.10;;;;;;;;;;6155628;23;20367;-88
2023/12/03 05:42:49;;;;;;;12.90;8.88;;;;;;;;;;6181440;23;20021;-88
2023/12/03 05:45:16;;;;;;;12.30;8.43;;;;;;;;;;6154962;23;20021;-88
2023/12/03 05:47:44;;;;;;;15.10;9.95;;;;;;;;;;6155556;23;20103;-88
2023/12/03 05:50:11;;;;;;;14.90;10.02;;;;;;;;;;6181313;23;20018;-88
2023/12/03 05:52:38;;;;;;;13.63;8.85;;;;;;;;;;6180763;23;20096;-88
2023/12/03 05:55:06;;;;;;;12.88;9.05;;;;;;;;;;6155202;23;20025;-88
2023/12/03 05:57:33;;;;;;;12.20;8.88;;;;;;;;;;6155489;23;20051;-88
2023/12/03 06:00:00;;;;;;;14.52;9.60;;;;;;;;;;6154777;23;20462;-88
2023/12/03 06:02:28;;;;;;;14.50;9.40;;;;;;;;;;6181070;23;20035;-88
2023/12/03 06:04:55;;;;;;;14.07;9.85;;;;;;;;;;6155328;23;20075;-88
2023/12/03 06:07:22;;;;;;;12.57;8.90;;;;;;;;;;6181276;23;20416;-88
2023/12/03 06:09:50;;;;;;;11.43;8.63;;;;;;;;;;6181922;23;20429;-88
2023/12/03 06:12:17;;;;;;;14.05;8.75;;;;;;;;;;6155167;23;20025;-88
2023/12/03 06:14:44;;;;;;;14.70;9.88;;;;;;;;;;6156262;23;20032;-88
2023/12/03 06:17:11;;;;;;;13.00;9.65;;;;;;;;;;6182549;23;20025;-88
2023/12/03 06:19:39;;;;;;;16.10;10.32;;;;;;;;;;6182119;23;20151;-88
2023/12/03 06:22:06;;;;;;;14.65;10.43;;;;;;;;;;6155811;23;20023;-88
2023/12/03 06:24:33;;;;;;;15.02;9.30;;;;;;;;;;6156263;23;20075;-88
2023/12/03 06:27:01;;;;;;;13.50;9.57;;;;;;;;;;6156383;23;20043;-88
2023/12/03 06:29:28;;;;;;;13.70;9.73;;;;;;;;;;6156214;23;20091;-88
2023/12/03 06:31:56;;;;;;;16.35;10.63;;;;;;;;;;6182836;23;20074;-88
2023/12/03 06:34:26;;;;;;;13.05;9.88;;;;;;;;;;6157261;23;20056;-88
2023/12/03 06:36:53;;;;;;;13.50;9.38;;;;;;;;;;6156569;23;20021;-88
2023/12/03 06:39:20;;;;;;;12.18;9.10;;;;;;;;;;6156778;23;20104;-88
2023/12/03 06:41:48;;;;;;;16.35;10.70;;;;;;;;;;6156086;23;20021;-88
2023/12/03 06:44:16;;;;;;;12.93;9.35;;;;;;;;;;6156891;23;20025;-88
2023/12/03 06:46:57;;;;;;;29.20;16.50;;;;;;;;;;6159591;23;20021;-88
2023/12/03 06:49:24;;;;;;;19.88;13.10;;;;;;;;;;6156736;23;20052;-88
2023/12/03 06:51:51;;;;;;;23.55;15.88;;;;;;;;;;6156987;23;20025;-88
2023/12/03 06:54:19;;;;;;;14.00;9.98;;;;;;;;;;6156091;23;20132;-88
2023/12/03 06:56:46;;;;;;;12.23;9.38;;;;;;;;;;6156457;23;20064;-88
2023/12/03 06:59:13;;;;;;;12.60;9.57;;;;;;;;;;6156805;23;20025;-88
2023/12/03 07:01:41;;;;;;;12.57;8.98;;;;;;;;;;6157104;23;20025;-88
2023/12/03 07:04:09;;;;;;;10.65;8.32;;;;;;;;;;6156485;23;20033;-89
2023/12/03 07:06:36;;;;;;;13.63;9.05;;;;;;;;;;6156353;23;20021;-89
2023/12/03 07:09:04;;;;;;;11.25;8.57;;;;;;;;;;6156331;23;20243;-88
2023/12/03 07:11:51;;;;;;;12.25;8.63;;;;;;;;;;6160509;23;20027;-88
2023/12/03 07:14:18;;;;;;;15.13;9.20;;;;;;;;;;6155892;23;20527;-88
2023/12/03 07:16:46;;;;;;;12.05;8.70;;;;;;;;;;6156647;23;20353;-88
2023/12/03 07:19:13;;;;;;;13.70;9.40;;;;;;;;;;6156517;23;20082;-88
2023/12/03 07:21:40;;;;;;;10.80;8.43;;;;;;;;;;6155686;23;20071;-88
2023/12/03 07:24:08;;;;;;;11.85;8.77;;;;;;;;;;6155443;23;20319;-88
2023/12/03 07:26:35;;;;;;;13.25;8.85;;;;;;;;;;6156249;23;20029;-88
2023/12/03 07:29:02;;;;;;;12.40;8.88;;;;;;;;;;6156634;23;20025;-88
2023/12/03 07:31:31;;;;;;;12.05;8.70;;;;;;;;;;6156679;23;20024;-88
2023/12/03 07:33:58;;;;;;;13.88;8.55;;;;;;;;;;6155762;23;20418;-88
2023/12/03 07:36:26;;;;;;;10.63;7.95;;;;;;;;;;6156606;23;20029;-88
2023/12/03 07:38:53;;;;;;;9.85;7.50;;;;;;;;;;6156931;23;20024;-88
2023/12/03 07:41:20;;;;;;;12.27;8.07;;;;;;;;;;6156216;23;20499;-88
2023/12/03 07:43:47;;;;;;;12.98;9.52;;;;;;;;;;6157169;23;20028;-88
2023/12/03 07:46:17;;;;;;;11.48;8.55;;;;;;;;;;6154988;23;20025;-88
2023/12/03 07:48:45;;;;;;;11.05;8.27;;;;;;;;;;6154572;23;20477;-88
2023/12/03 07:51:12;;;;;;;13.32;10.00;;;;;;;;;;6156531;23;20068;-88
2023/12/03 07:53:40;;;;;;;13.23;9.95;;;;;;;;;;6181908;23;20028;-88
2023/12/03 07:56:08;;;;;;;11.13;8.85;;;;;;;;;;6156286;23;20017;-88
2023/12/03 07:58:36;;;;;;;11.75;8.27;;;;;;;;;;6156215;23;20073;-88
2023/12/03 08:01:06;;;;;;;11.02;8.10;;;;;;;;;;6156691;23;20021;-88
2023/12/03 08:03:33;;;;;;;9.68;7.97;;;;;;;;;;6156892;23;20021;-88
2023/12/03 08:06:00;;;;;;;12.55;8.63;;;;;;;;;;6156537;23;20025;-88
2023/12/03 08:08:28;;;;;;;12.68;10.20;;;;;;;;;;6156835;23;20017;-88
2023/12/03 08:10:55;;;;;;;11.23;8.25;;;;;;;;;;6156738;23;20358;-87
2023/12/03 08:13:22;;;;;;;9.75;7.68;;;;;;;;;;6156065;23;20021;-87
2023/12/03 08:15:50;;;;;;;10.02;7.60;;;;;;;;;;6156408;23;20029;-87
2023/12/03 08:18:17;;;;;;;11.80;8.10;;;;;;;;;;6156744;23;20042;-87
2023/12/03 08:20:44;;;;;;;9.50;7.50;;;;;;;;;;6156814;23;20021;-87
2023/12/03 08:23:12;;;;;;;11.43;7.90;;;;;;;;;;6156833;23;20066;-87
2023/12/03 08:25:39;;;;;;;10.32;8.05;;;;;;;;;;6155333;23;20017;-87
2023/12/03 08:28:06;;;;;;;11.35;8.32;;;;;;;;;;6181393;23;20035;-87
2023/12/03 08:30:34;;;;;;;12.95;8.90;;;;;;;;;;6155739;23;20424;-87
2023/12/03 08:33:01;;;;;;;13.15;8.10;;;;;;;;;;6181439;23;20036;-87
2023/12/03 08:35:31;;;;;;;14.13;9.57;;;;;;;;;;6180803;23;20031;-87
2023/12/03 08:37:58;;;;;;;12.30;8.60;;;;;;;;;;6155314;23;20040;-87
2023/12/03 08:40:26;;;;;;;11.70;8.20;;;;;;;;;;6155909;23;20029;-88
2023/12/03 08:42:53;;;;;;;11.35;8.10;;;;;;;;;;6181857;23;20384;-87
2023/12/03 08:45:20;;;;;;;8.93;7.55;;;;;;;;;;6181597;23;20457;-87
2023/12/03 08:47:48;;;;;;;11.23;8.23;;;;;;;;;;6156204;23;20025;-87
2023/12/03 08:50:15;;;;;;;10.95;8.35;;;;;;;;;;6181686;23;20099;-87
2023/12/03 08:52:42;;;;;;;11.20;8.32;;;;;;;;;;6181302;23;20021;-87
2023/12/03 08:55:09;;;;;;;11.25;8.48;;;;;;;;;;6155050;23;20029;-87
2023/12/03 08:57:39;;;;;;;9.55;8.02;;;;;;;;;;6155863;23;20021;-87
2023/12/03 09:00:08;;;;;;;11.50;8.13;;;;;;;;;;6182085;23;20025;-87
2023/12/03 09:02:35;;;;;;;12.43;8.48;;;;;;;;;;6156059;23;20330;-87
2023/12/03 09:05:03;;;;;;;13.02;8.68;;;;;;;;;;6155011;23;20027;-87
2023/12/03 09:07:30;;;;;;;10.35;7.82;;;;;;;;;;6156275;22;20024;-87
2023/12/03 09:09:58;;;;;;;16.20;8.82;;;;;;;;;;6155449;23;20107;-87
2023/12/03 09:12:25;;;;;;;12.93;8.38;;;;;;;;;;6155663;23;20094;-87
2023/12/03 09:14:53;;;;;;;12.15;8.15;;;;;;;;;;6180865;23;20075;-86
2023/12/03 09:17:20;;;;;;;9.40;7.32;;;;;;;;;;6155773;23;20078;-87
2023/12/03 09:19:47;;;;;;;8.60;7.40;;;;;;;;;;6155035;23;20017;-86
2023/12/03 09:22:14;;;;;;;14.35;8.82;;;;;;;;;;6155502;23;20025;-86
2023/12/03 09:24:42;;;;;;;10.40;8.30;;;;;;;;;;6155630;23;20350;-86
2023/12/03 09:27:09;;;;;;;10.02;7.53;;;;;;;;;;6155634;23;20017;-86
2023/12/03 09:29:36;;;;;;;15.35;8.40;;;;;;;;;;6155070;23;20017;-86
2023/12/03 09:32:07;;;;;;;10.85;8.50;;;;;;;;;;6155458;23;20021;-86
2023/12/03 09:34:34;;;;;;;10.43;8.10;;;;;;;;;;6155208;23;20413;-87
2023/12/03 09:37:02;;;;;;;10.07;7.88;;;;;;;;;;6155125;23;20074;-86
2023/12/03 09:39:29;;;;;;;13.30;9.52;;;;;;;;;;6155270;23;20450;-86
2023/12/03 09:41:57;;;;;;;12.93;9.15;;;;;;;;;;6155512;23;20021;-86
2023/12/03 09:44:29;;;;;;;10.85;8.40;;;;;;;;;;6155118;23;20046;-87
2023/12/03 09:46:57;;;;;;;17.67;9.98;;;;;;;;;;6181279;23;20025;-85
2023/12/03 09:49:25;;;;;;;14.43;10.30;;;;;;;;;;6155088;23;20025;-86
2023/12/03 09:51:53;;;;;;;14.63;10.00;;;;;;;;;;6155761;23;20029;-86
2023/12/03 09:54:21;;;;;;;20.42;10.20;;;;;;;;;;6181086;23;20029;-86
2023/12/03 09:56:49;;;;;;;13.52;9.75;;;;;;;;;;6181873;23;20047;-86
2023/12/03 09:59:17;;;;;;;14.10;9.65;;;;;;;;;;6155451;23;20025;-86
2023/12/03 10:01:44;;;;;;;14.43;9.38;;;;;;;;;;6155441;23;20025;-87
2023/12/03 10:04:11;;;;;;;12.43;9.63;;;;;;;;;;6155007;23;20018;-86
2023/12/03 10:06:43;;;;;;;14.35;9.70;;;;;;;;;;6154445;23;20025;-86
2023/12/03 10:09:13;;;;;;;11.50;9.18;;;;;;;;;;6155264;23;20040;-86
2023/12/03 10:11:41;;;;;;;15.25;9.82;;;;;;;;;;6180964;23;20021;-86
2023/12/03 10:14:09;;;;;;;12.35;9.23;;;;;;;;;;6155336;23;20022;-86
2023/12/03 10:16:36;;;;;;;13.77;10.00;;;;;;;;;;6155120;23;20025;-86
2023/12/03 10:19:03;;;;;;;13.57;10.13;;;;;;;;;;6155641;23;20029;-87
2023/12/03 10:21:31;;;;;;;12.55;9.70;;;;;;;;;;6155105;23;20451;-86
2023/12/03 10:24:00;;;;;;;13.98;10.40;;;;;;;;;;6181322;23;20028;-86
2023/12/03 10:26:28;;;;;;;13.05;10.38;;;;;;;;;;6181074;23;20025;-86
2023/12/03 10:28:55;;;;;;;15.50;10.85;;;;;;;;;;6181040;23;20033;-86
2023/12/03 10:31:23;;;;;;;13.00;9.68;;;;;;;;;;6154674;23;20048;-87
2023/12/03 10:33:52;;;;;;;15.00;9.95;;;;;;;;;;6180928;23;20025;-86
2023/12/03 10:36:20;;;;;;;15.45;10.20;;;;;;;;;;6155178;23;20071;-87
2023/12/03 10:38:47;;;;;;;13.52;10.30;;;;;;;;;;6155504;23;20096;-86
2023/12/03 10:41:14;;;;;;;13.30;9.63;;;;;;;;;;6155183;23;20350;-87
2023/12/03 10:43:42;;;;;;;14.50;10.13;;;;;;;;;;6155022;23;20461;-86
2023/12/03 10:46:11;;;;;;;14.75;10.40;;;;;;;;;;6180610;23;20026;-86
2023/12/03 10:48:41;;;;;;;14.15;9.35;;;;;;;;;;6155727;23;20319;-86
2023/12/03 10:51:09;;;;;;;13.45;9.80;;;;;;;;;;6181628;23;20021;-86
2023/12/03 10:53:37;;;;;;;13.80;9.38;;;;;;;;;;6155143;23;20519;-87
2023/12/03 10:56:05;;;;;;;14.40;10.35;;;;;;;;;;6181583;23;20075;-87
2023/12/03 10:58:37;;;;;;;14.30;10.32;;;;;;;;;;6182541;23;20025;-87
2023/12/03 11:01:08;;;;;;;12.77;9.25;;;;;;;;;;6157888;23;20021;-87
2023/12/03 11:03:51;;;;;;;12.45;9.10;;;;;;;;;;6160023;23;20051;-86
2023/12/03 11:06:18;;;;;;;13.13;9.75;;;;;;;;;;6172502;23;20025;-85
2023/12/03 11:08:46;;;;;;;14.25;9.77;;;;;;;;;;6165618;23;20061;-87
2023/12/03 11:11:14;;;;;;;14.35;9.63;;;;;;;;;;6182088;23;20029;-87
2023/12/03 11:13:42;;;;;;;12.52;9.77;;;;;;;;;;6156758;23;20070;-85
2023/12/03 11:16:14;;;;;;;15.02;9.43;;;;;;;;;;6182212;23;20028;-87
2023/12/03 11:18:45;;;;;;;13.73;10.02;;;;;;;;;;6156974;23;20025;-86
2023/12/03 11:21:19;;;;;;;12.13;9.10;;;;;;;;;;6182059;23;20029;-86
2023/12/03 11:24:07;;;;;;;14.30;9.75;;;;;;;;;;6182384;23;20346;-86
2023/12/03 11:26:34;;;;;;;12.65;9.55;;;;;;;;;;6156028;23;20465;-86
2023/12/03 11:29:01;;;;;;;13.23;9.90;;;;;;;;;;6156091;23;20029;-87
2023/12/03 11:31:29;;;;;;;13.95;10.23;;;;;;;;;;6182387;23;20167;-87
2023/12/03 11:33:57;;;;;;;14.38;9.38;;;;;;;;;;6156338;23;20021;-86
2023/12/03 11:36:36;;;;;;;13.68;10.05;;;;;;;;;;6181620;23;20097;-86
2023/12/03 11:39:04;;;;;;;14.60;10.32;;;;;;;;;;6156369;23;20551;-86
2023/12/03 11:41:37;;;;;;;14.50;10.18;;;;;;;;;;6156069;23;20032;-85
2023/12/03 11:44:18;;;;;;;14.18;10.35;;;;;;;;;;6156252;23;20040;-86
2023/12/03 11:46:47;;;;;;;14.88;10.60;;;;;;;;;;6155975;23;20031;-86
2023/12/03 11:49:15;;;;;;;14.07;10.13;;;;;;;;;;6156161;23;20021;-86
2023/12/03 11:51:44;;;;;;;16.20;10.65;;;;;;;;;;6156353;23;20028;-86
2023/12/03 11:54:15;;;;;;;14.77;11.02;;;;;;;;;;6155501;23;20025;-86
2023/12/03 11:56:42;;;;;;;15.70;11.10;;;;;;;;;;6155323;23;20021;-86
2023/12/03 11:59:13;;;;;;;15.63;10.13;;;;;;;;;;6181875;23;20021;-87
2023/12/03 12:01:40;;;;;;;17.40;10.88;;;;;;;;;;6156155;23;20025;-86
2023/12/03 12:04:08;;;;;;;14.93;11.02;;;;;;;;;;6155978;23;20021;-86
2023/12/03 12:06:36;;;;;;;16.75;11.63;;;;;;;;;;6155301;23;20021;-86
2023/12/03 12:09:13;;;;;;;14.07;9.85;;;;;;;;;;6155869;23;20029;-86
2023/12/03 12:11:40;;;;;;;15.00;10.48;;;;;;;;;;6181736;23;20396;-86
2023/12/03 12:14:08;;;;;;;16.98;11.13;;;;;;;;;;6156084;23;20026;-86
2023/12/03 12:16:37;;;;;;;16.60;11.45;;;;;;;;;;6155213;23;20021;-86
2023/12/03 12:19:04;;;;;;;13.85;10.55;;;;;;;;;;6155767;23;20060;-86
2023/12/03 12:21:32;;;;;;;16.00;10.68;;;;;;;;;;6155468;22;20096;-86
2023/12/03 12:23:59;;;;;;;16.27;11.25;;;;;;;;;;6156050;23;20397;-86
2023/12/03 12:26:27;;;;;;;14.45;10.13;;;;;;;;;;6181742;23;20048;-86
2023/12/03 12:28:55;;;;;;;13.73;10.15;;;;;;;;;;6156189;23;20104;-86
2023/12/03 12:31:26;;;;;;;17.08;11.40;;;;;;;;;;6156068;23;20036;-86
2023/12/03 12:33:55;;;;;;;13.70;10.27;;;;;;;;;;6155441;23;20029;-86
2023/12/03 12:36:23;;;;;;;15.90;11.15;;;;;;;;;;6155709;23;20024;-86
2023/12/03 12:38:50;;;;;;;16.73;11.40;;;;;;;;;;6156439;23;20338;-86
2023/12/03 12:41:19;;;;;;;15.43;10.23;;;;;;;;;;6156137;23;20025;-86
2023/12/03 12:43:54;;;;;;;16.73;11.00;;;;;;;;;;6181494;23;20496;-86
2023/12/03 12:46:21;;;;;;;14.40;10.77;;;;;;;;;;6154905;23;20543;-87
2023/12/03 12:48:48;;;;;;;16.48;10.88;;;;;;;;;;6155709;23;20021;-86
2023/12/03 12:51:22;;;;;;;15.40;11.00;;;;;;;;;;6155444;23;20029;-86
2023/12/03 12:53:54;;;;;;;15.68;10.70;;;;;;;;;;6155195;22;20075;-86
2023/12/03 12:56:22;;;;;;;14.25;9.98;;;;;;;;;;6155356;23;20096;-86
2023/12/03 12:58:49;;;;;;;15.55;11.07;;;;;;;;;;6153451;23;20188;-86
2023/12/03 13:01:17;;;;;;;14.85;10.20;;;;;;;;;;6179980;23;20084;-86
2023/12/03 13:03:44;;;;;;;15.10;10.48;;;;;;;;;;6155027;23;20036;-86
2023/12/03 13:06:12;;;;;;;14.60;10.70;;;;;;;;;;6154692;23;20029;-86
2023/12/03 13:08:40;;;;;;;15.13;10.10;;;;;;;;;;6155100;23;20013;-86
2023/12/03 13:11:07;;;;;;;14.60;9.90;;;;;;;;;;6155600;23;20025;-86
2023/12/03 13:13:34;;;;;;;16.00;10.30;;;;;;;;;;6155864;23;20041;-86
2023/12/03 13:16:01;;;;;;;17.30;10.82;;;;;;;;;;6155749;23;20021;-86
2023/12/03 13:18:29;;;;;;;13.82;9.68;;;;;;;;;;6155798;23;20039;-86
2023/12/03 13:20:57;;;;;;;14.43;10.40;;;;;;;;;;6156008;23;20025;-86
2023/12/03 13:23:25;;;;;;;16.20;11.13;;;;;;;;;;6155573;23;20025;-86
2023/12/03 13:25:53;;;;;;;21.25;14.05;;;;;;;;;;6154606;22;20024;-86
2023/12/03 13:28:20;;;;;;;16.35;10.43;;;;;;;;;;6155631;23;20074;-86
2023/12/03 13:30:47;;;;;;;14.40;10.07;;;;;;;;;;6155579;23;20032;-86
2023/12/03 13:33:14;;;;;;;17.63;11.80;;;;;;;;;;6155500;23;20466;-87
2023/12/03 13:35:42;;;;;;;15.55;10.85;;;;;;;;;;6155439;23;20029;-86
2023/12/03 13:38:09;;;;;;;17.33;11.50;;;;;;;;;;6155446;23;20029;-86
2023/12/03 13:40:36;;;;;;;14.45;9.45;;;;;;;;;;6155594;23;20086;-86
2023/12/03 13:43:04;;;;;;;12.77;9.80;;;;;;;;;;6154935;23;20016;-86
2023/12/03 13:45:31;;;;;;;13.82;10.45;;;;;;;;;;6154820;23;20414;-85
2023/12/03 13:47:59;;;;;;;15.95;10.75;;;;;;;;;;6155202;23;20021;-86
2023/12/03 13:50:27;;;;;;;18.58;11.55;;;;;;;;;;6181205;23;20017;-86
2023/12/03 13:52:54;;;;;;;15.05;10.25;;;;;;;;;;6154764;22;20070;-86
2023/12/03 13:55:21;;;;;;;14.13;9.85;;;;;;;;;;6181259;23;20025;-86
2023/12/03 13:57:49;;;;;;;14.38;9.80;;;;;;;;;;6155109;23;20025;-86
2023/12/03 14:00:16;;;;;;;16.70;10.43;;;;;;;;;;6181430;23;20074;-86
2023/12/03 14:02:44;;;;;;;15.90;10.52;;;;;;;;;;6154924;23;20519;-86
2023/12/03 14:05:11;;;;;;;14.52;10.20;;;;;;;;;;6180335;23;20025;-86
2023/12/03 14:07:52;;;;;;;14.05;9.95;;;;;;;;;;6157720;23;20025;-86
2023/12/03 14:10:21;;;;;;;14.23;9.88;;;;;;;;;;6156207;22;20021;-86
2023/12/03 14:12:48;;;;;;;18.42;11.18;;;;;;;;;;6156523;23;20021;-86
2023/12/03 14:15:16;;;;;;;15.38;10.50;;;;;;;;;;6190366;23;20025;-86
2023/12/03 14:17:43;;;;;;;15.70;10.25;;;;;;;;;;6196053;23;20041;-86
2023/12/03 14:20:11;;;;;;;16.02;10.23;;;;;;;;;;6183272;23;20033;-85
2023/12/03 14:22:40;;;;;;;15.25;10.77;;;;;;;;;;6180932;23;20017;-87
2023/12/03 14:25:08;;;;;;;17.48;11.70;;;;;;;;;;6154695;23;20395;-86
2023/12/03 14:27:35;;;;;;;14.05;10.48;;;;;;;;;;6155271;23;20025;-87
2023/12/03 14:30:03;;;;;;;15.38;10.82;;;;;;;;;;6180957;23;20021;-86
2023/12/03 14:32:30;;;;;;;19.13;11.75;;;;;;;;;;6154655;23;20021;-86